Time;durP1;ratioP1;P1;durP2;ratioP2;P2;SDS_P1;SDS_P2;PMS_P1;PMS_P2;Temp;Humidity;BMP_temperature;BMP_pressure;BME280_temperature;BME280_humidity;BME280_pressure;Samples;Min_cycle;Max_cycle;Signal;HPM_P1;HPM_P2
2022/04/14 00:00:06;;;;;;;46.85;19.98;;;11.50;95.10;;;;;;5019268;28;20100;-73
2022/04/14 00:02:32;;;;;;;44.65;20.10;;;11.40;95.10;;;;;;5030507;28;20033;-73
2022/04/14 00:04:57;;;;;;;48.03;19.13;;;11.40;95.20;;;;;;5024537;28;20040;-73
2022/04/14 00:07:23;;;;;;;44.72;19.25;;;11.30;95.20;;;;;;5029893;28;20037;-74
2022/04/14 00:09:49;;;;;;;43.55;18.83;;;11.30;95.20;;;;;;5029634;28;20040;-73
2022/04/14 00:12:14;;;;;;;39.22;18.63;;;11.30;95.40;;;;;;5030547;28;20025;-74
2022/04/14 00:14:40;;;;;;;45.33;17.20;;;11.30;95.30;;;;;;5017397;28;20030;-74
2022/04/14 00:17:05;;;;;;;39.90;18.58;;;11.30;95.50;;;;;;5029741;28;20041;-73
2022/04/14 00:19:31;;;;;;;43.10;18.10;;;11.30;95.50;;;;;;5029920;28;20033;-74
2022/04/14 00:21:57;;;;;;;47.13;19.00;;;11.30;95.50;;;;;;5026750;28;20037;-73
2022/04/14 00:24:22;;;;;;;46.80;18.35;;;11.30;95.60;;;;;;5027501;28;20392;-75
2022/04/14 00:26:48;;;;;;;49.60;17.98;;;11.30;95.60;;;;;;5030466;28;20103;-73
2022/04/14 00:29:13;;;;;;;50.95;18.35;;;11.20;95.60;;;;;;5030141;28;20026;-73
2022/04/14 00:31:39;;;;;;;54.85;18.15;;;11.20;95.60;;;;;;5019641;28;20030;-75
2022/04/14 00:34:04;;;;;;;49.00;18.90;;;11.10;95.60;;;;;;5030055;28;20042;-73
2022/04/14 00:36:30;;;;;;;53.50;19.05;;;11.10;95.60;;;;;;5029622;28;20457;-74
2022/04/14 00:38:55;;;;;;;47.83;19.10;;;11.10;95.70;;;;;;5022056;28;20393;-73
2022/04/14 00:41:21;;;;;;;40.08;18.02;;;11.10;95.70;;;;;;5030189;28;20032;-73
2022/04/14 00:43:52;;;;;;;49.88;20.20;;;11.10;95.80;;;;;;5029657;28;20437;-73
2022/04/14 00:46:18;;;;;;;47.67;19.85;;;11.10;95.90;;;;;;5029642;28;20029;-73
2022/04/14 00:48:44;;;;;;;48.63;19.58;;;11.10;95.90;;;;;;5028138;28;20033;-76
2022/04/14 00:51:10;;;;;;;44.30;18.83;;;11.10;95.90;;;;;;5031691;28;20075;-73
2022/04/14 00:53:37;;;;;;;51.85;20.10;;;11.10;95.90;;;;;;5033825;28;20432;-73
2022/04/14 00:56:04;;;;;;;52.50;18.92;;;11.10;95.90;;;;;;5026833;28;20025;-73
2022/04/14 00:58:29;;;;;;;46.13;19.23;;;11.10;96.00;;;;;;5033108;28;20069;-73
2022/04/14 01:00:55;;;;;;;42.13;18.98;;;11.10;96.00;;;;;;5024278;28;20026;-73
2022/04/14 01:03:21;;;;;;;44.05;19.52;;;11.10;96.00;;;;;;5030067;28;20072;-73
2022/04/14 01:05:47;;;;;;;44.83;19.60;;;11.10;96.10;;;;;;5025986;28;20041;-74
2022/04/14 01:08:16;;;;;;;45.50;19.15;;;11.10;96.10;;;;;;5033479;28;20499;-74
2022/04/14 01:10:44;;;;;;;50.78;19.33;;;11.10;96.10;;;;;;5033710;28;20536;-74
2022/04/14 01:13:10;;;;;;;50.47;19.00;;;11.10;96.10;;;;;;5032794;28;20029;-73
2022/04/14 01:15:36;;;;;;;46.65;19.95;;;11.10;96.10;;;;;;5033703;28;20079;-73
2022/04/14 01:18:02;;;;;;;42.20;18.35;;;11.10;96.10;;;;;;5033380;28;20044;-74
2022/04/14 01:20:28;;;;;;;46.88;19.38;;;11.10;96.10;;;;;;5033632;28;20065;-73
2022/04/14 01:23:00;;;;;;;42.60;19.10;;;11.10;96.10;;;;;;5032429;28;20084;-73
2022/04/14 01:25:26;;;;;;;46.50;18.27;;;11.10;96.10;;;;;;5033500;28;20033;-73
2022/04/14 01:27:52;;;;;;;53.60;19.92;;;11.10;96.10;;;;;;5033678;28;20033;-75
2022/04/14 01:30:18;;;;;;;47.47;18.13;;;11.10;96.10;;;;;;5026833;28;20393;-73
2022/04/14 01:32:43;;;;;;;46.35;19.13;;;11.00;96.20;;;;;;5033193;28;20058;-74
2022/04/14 01:35:09;;;;;;;44.38;18.10;;;11.10;96.10;;;;;;5032807;28;20037;-73
2022/04/14 01:37:35;;;;;;;46.97;18.10;;;11.10;96.20;;;;;;5033297;28;20066;-73
2022/04/14 01:40:00;;;;;;;49.08;20.30;;;11.10;96.20;;;;;;5026163;28;20025;-73
2022/04/14 01:42:26;;;;;;;44.83;19.27;;;11.00;96.20;;;;;;5033164;28;20037;-73
2022/04/14 01:44:51;;;;;;;50.22;19.63;;;11.10;96.20;;;;;;5033592;28;20108;-73
2022/04/14 01:47:17;;;;;;;46.22;19.02;;;11.00;96.30;;;;;;5022575;28;20450;-73
2022/04/14 01:49:42;;;;;;;45.58;18.65;;;11.00;96.30;;;;;;5031952;28;20496;-74
2022/04/14 01:52:08;;;;;;;44.88;18.25;;;11.00;96.30;;;;;;5032992;28;20029;-73
2022/04/14 01:54:33;;;;;;;45.95;20.05;;;11.00;96.30;;;;;;5032635;28;20025;-73
2022/04/14 01:56:59;;;;;;;53.85;19.48;;;11.00;96.30;;;;;;5028390;28;20113;-73
2022/04/14 01:59:24;;;;;;;50.50;20.20;;;11.00;96.30;;;;;;5028419;28;20030;-73
2022/04/14 02:01:50;;;;;;;46.35;19.95;;;10.90;96.30;;;;;;5029061;28;20091;-72
2022/04/14 02:04:15;;;;;;;47.40;19.67;;;10.90;96.40;;;;;;5031035;28;20495;-72
2022/04/14 02:06:41;;;;;;;48.05;19.33;;;10.90;96.40;;;;;;5032514;28;20046;-72
2022/04/14 02:09:06;;;;;;;51.88;19.13;;;10.90;96.40;;;;;;5033188;28;20060;-72
2022/04/14 02:11:32;;;;;;;46.67;19.30;;;10.90;96.40;;;;;;5032791;28;20029;-72
2022/04/14 02:13:57;;;;;;;58.65;20.75;;;10.90;96.40;;;;;;5029581;28;20566;-72
2022/04/14 02:16:23;;;;;;;55.38;20.48;;;10.90;96.40;;;;;;5032410;28;20037;-72
2022/04/14 02:18:49;;;;;;;51.88;20.42;;;10.90;96.40;;;;;;5030140;28;20029;-72
2022/04/14 02:21:14;;;;;;;57.38;20.92;;;10.90;96.50;;;;;;5023645;28;20037;-71
2022/04/14 02:23:40;;;;;;;55.55;20.90;;;10.90;96.50;;;;;;5032521;28;20029;-72
2022/04/14 02:26:05;;;;;;;55.65;20.80;;;10.90;96.50;;;;;;5031201;28;20042;-72
2022/04/14 02:28:31;;;;;;;64.10;23.02;;;10.80;96.50;;;;;;5031691;28;20033;-72
2022/04/14 02:30:56;;;;;;;54.00;21.58;;;10.80;96.50;;;;;;5026329;28;20120;-71
2022/04/14 02:33:22;;;;;;;59.47;21.73;;;10.80;96.50;;;;;;5032049;28;20029;-72
2022/04/14 02:35:47;;;;;;;54.85;21.73;;;10.80;96.50;;;;;;5031559;28;20044;-71
2022/04/14 02:38:13;;;;;;;68.80;23.23;;;10.80;96.60;;;;;;5019394;28;20064;-72
2022/04/14 02:40:39;;;;;;;63.80;22.70;;;10.80;96.60;;;;;;5032567;28;20061;-72
2022/04/14 02:43:04;;;;;;;64.45;23.10;;;10.70;96.60;;;;;;5032466;28;20073;-72
2022/04/14 02:45:30;;;;;;;71.43;22.95;;;10.80;96.60;;;;;;5032236;28;20083;-72
2022/04/14 02:47:56;;;;;;;68.63;23.75;;;10.70;96.60;;;;;;5028365;28;20029;-72
2022/04/14 02:50:22;;;;;;;66.65;24.25;;;10.70;96.60;;;;;;5031669;28;20040;-72
2022/04/14 02:52:48;;;;;;;74.18;24.23;;;10.70;96.60;;;;;;5032030;28;20029;-71
2022/04/14 02:55:14;;;;;;;70.63;23.17;;;10.70;96.60;;;;;;5025438;28;20074;-72
2022/04/14 02:57:40;;;;;;;70.97;24.30;;;10.70;96.60;;;;;;5030843;28;20116;-72
2022/04/14 03:00:09;;;;;;;65.60;23.38;;;10.60;96.70;;;;;;5031882;28;20148;-71
2022/04/14 03:02:38;;;;;;;68.50;23.52;;;10.70;96.80;;;;;;5028671;28;20037;-72
2022/04/14 03:05:04;;;;;;;73.35;23.65;;;10.70;96.70;;;;;;5023966;28;20432;-71
2022/04/14 03:07:30;;;;;;;89.22;23.92;;;10.70;96.70;;;;;;5031880;28;20033;-72
2022/04/14 03:09:55;;;;;;;68.07;23.58;;;10.60;96.70;;;;;;5030534;28;20024;-72
2022/04/14 03:12:21;;;;;;;75.10;24.20;;;10.60;96.70;;;;;;5016674;28;20052;-71
2022/04/14 03:14:47;;;;;;;76.75;23.75;;;10.60;96.70;;;;;;5031431;28;20026;-72
2022/04/14 03:17:13;;;;;;;77.88;24.45;;;10.60;96.80;;;;;;5030161;28;20041;-72
2022/04/14 03:19:39;;;;;;;83.68;25.00;;;10.60;96.80;;;;;;5030444;28;20123;-72
2022/04/14 03:22:04;;;;;;;77.32;24.58;;;10.60;96.80;;;;;;5029117;28;20053;-72
2022/04/14 03:24:30;;;;;;;83.60;24.20;;;10.60;96.90;;;;;;5031558;28;20472;-73
2022/04/14 03:26:56;;;;;;;84.35;24.85;;;10.60;96.90;;;;;;5031461;28;20092;-72
2022/04/14 03:29:21;;;;;;;79.53;24.63;;;10.60;96.90;;;;;;5026734;28;20037;-71
2022/04/14 03:31:47;;;;;;;84.47;24.52;;;10.60;96.90;;;;;;5030899;28;20033;-72
2022/04/14 03:34:12;;;;;;;90.72;26.35;;;10.60;97.00;;;;;;5031299;28;20376;-72
2022/04/14 03:36:38;;;;;;;93.03;25.33;;;10.60;97.00;;;;;;5031217;28;20068;-71
2022/04/14 03:39:04;;;;;;;87.97;26.27;;;10.60;97.00;;;;;;5029421;28;20071;-71
2022/04/14 03:41:29;;;;;;;86.25;25.95;;;10.60;97.00;;;;;;5031521;28;20061;-71
2022/04/14 03:43:55;;;;;;;83.63;25.63;;;10.60;97.00;;;;;;5031533;28;20063;-72
2022/04/14 03:46:21;;;;;;;97.90;26.30;;;10.60;97.10;;;;;;5024768;28;20120;-72
2022/04/14 03:48:47;;;;;;;94.05;27.42;;;10.60;97.10;;;;;;5031603;28;20064;-71
2022/04/14 03:51:14;;;;;;;82.28;26.13;;;10.60;97.10;;;;;;5029866;28;20033;-72
2022/04/14 03:53:41;;;;;;;80.18;25.42;;;10.70;97.10;;;;;;5031110;28;20029;-72
2022/04/14 03:56:06;;;;;;;88.63;26.67;;;10.70;97.10;;;;;;5022299;28;20033;-72
2022/04/14 03:58:32;;;;;;;99.35;27.65;;;10.70;97.10;;;;;;5030862;28;20118;-72
2022/04/14 04:00:57;;;;;;;82.53;27.55;;;10.70;97.20;;;;;;5030454;28;20444;-72
2022/04/14 04:03:23;;;;;;;107.13;27.25;;;10.70;97.20;;;;;;5023663;28;20049;-72
2022/04/14 04:05:48;;;;;;;91.18;26.55;;;10.70;97.20;;;;;;5030404;28;20171;-72
2022/04/14 04:08:14;;;;;;;86.85;26.63;;;10.70;97.20;;;;;;5030961;28;20472;-72
2022/04/14 04:10:39;;;;;;;119.90;34.17;;;10.80;97.20;;;;;;5031387;28;20039;-72
2022/04/14 04:13:05;;;;;;;94.97;27.88;;;10.70;97.20;;;;;;5028069;28;20098;-72
2022/04/14 04:15:31;;;;;;;108.93;30.80;;;10.70;97.20;;;;;;5031088;28;20090;-74
2022/04/14 04:17:56;;;;;;;98.30;27.30;;;10.80;97.30;;;;;;5029593;28;20033;-70
2022/04/14 04:20:22;;;;;;;107.75;30.30;;;10.80;97.30;;;;;;5022973;28;20037;-68
2022/04/14 04:22:47;;;;;;;87.32;29.08;;;10.80;97.30;;;;;;5030452;28;20038;-67
2022/04/14 04:25:13;;;;;;;98.93;27.35;;;10.80;97.30;;;;;;5031664;28;20167;-70
2022/04/14 04:27:39;;;;;;;88.55;28.27;;;10.80;97.30;;;;;;5033701;28;20034;-68
2022/04/14 04:30:06;;;;;;;93.57;27.35;;;10.80;97.30;;;;;;5026960;28;20041;-69
2022/04/14 04:32:34;;;;;;;87.47;26.75;;;10.80;97.40;;;;;;5034857;28;20029;-68
2022/04/14 04:35:01;;;;;;;77.30;27.88;;;10.80;97.40;;;;;;5034854;28;20113;-71
2022/04/14 04:37:27;;;;;;;88.43;28.50;;;10.80;97.40;;;;;;5034158;28;20052;-68
2022/04/14 04:39:52;;;;;;;77.50;24.83;;;10.80;97.40;;;;;;5022934;28;20029;-69
2022/04/14 04:42:18;;;;;;;83.53;25.60;;;10.80;97.40;;;;;;5034652;28;20037;-68
2022/04/14 04:44:43;;;;;;;84.00;26.55;;;10.80;97.40;;;;;;5034089;28;20056;-70
2022/04/14 04:47:09;;;;;;;89.40;25.98;;;10.80;97.40;;;;;;5025898;28;20124;-68
2022/04/14 04:49:34;;;;;;;74.70;25.63;;;10.80;97.40;;;;;;5034201;28;20052;-69
2022/04/14 04:52:00;;;;;;;85.75;26.75;;;10.80;97.40;;;;;;5034974;28;20029;-68
2022/04/14 04:54:26;;;;;;;111.82;26.55;;;10.80;97.40;;;;;;5025582;28;20034;-69
2022/04/14 04:56:52;;;;;;;102.78;25.95;;;10.90;97.50;;;;;;5029000;28;20120;-70
2022/04/14 04:59:17;;;;;;;99.85;26.02;;;10.80;97.40;;;;;;5033981;28;20159;-68
2022/04/14 05:01:43;;;;;;;94.03;24.35;;;10.90;97.50;;;;;;5034001;28;20522;-70
2022/04/14 05:04:11;;;;;;;90.80;25.02;;;10.80;97.40;;;;;;5030221;28;20115;-69
2022/04/14 05:06:39;;;;;;;81.43;25.50;;;10.90;97.50;;;;;;5033725;28;20029;-69
2022/04/14 05:09:05;;;;;;;83.00;24.10;;;10.90;97.50;;;;;;5034425;28;20530;-69
2022/04/14 05:11:31;;;;;;;74.97;26.42;;;10.90;97.50;;;;;;5029304;28;20030;-70
2022/04/14 05:13:56;;;;;;;74.05;24.35;;;10.90;97.50;;;;;;5034092;28;20037;-70
2022/04/14 05:16:22;;;;;;;71.45;23.35;;;10.90;97.50;;;;;;5035373;28;20485;-71
2022/04/14 05:18:48;;;;;;;65.60;23.88;;;11.00;97.50;;;;;;5034787;28;20022;-70
2022/04/14 05:21:14;;;;;;;61.03;23.95;;;11.00;97.50;;;;;;5035214;28;20127;-70
2022/04/14 05:23:40;;;;;;;68.78;24.40;;;11.00;97.50;;;;;;5034457;28;20432;-70
2022/04/14 05:26:05;;;;;;;53.72;23.35;;;10.90;97.50;;;;;;5034135;28;20041;-69
2022/04/14 05:28:31;;;;;;;48.83;22.33;;;11.00;97.50;;;;;;5027313;28;20040;-70
2022/04/14 05:30:56;;;;;;;51.70;21.13;;;11.00;97.50;;;;;;5033689;28;20026;-70
2022/04/14 05:33:22;;;;;;;46.72;21.55;;;11.00;97.50;;;;;;5033674;28;20444;-70
2022/04/14 05:35:48;;;;;;;50.05;21.38;;;11.00;97.50;;;;;;5032964;28;20038;-69
2022/04/14 05:38:14;;;;;;;44.95;20.95;;;11.00;97.50;;;;;;5027556;28;20456;-70
2022/04/14 05:40:45;;;;;;;43.75;20.20;;;11.00;97.50;;;;;;5033646;28;20018;-70
2022/04/14 05:43:28;;;;;;;43.65;20.55;;;11.00;97.50;;;;;;5033213;28;20111;-70
2022/04/14 05:45:57;;;;;;;38.22;19.50;;;11.00;97.50;;;;;;5022676;28;20124;-70
2022/04/14 05:48:23;;;;;;;38.03;18.50;;;11.10;97.50;;;;;;5033162;28;20104;-70
2022/04/14 05:50:49;;;;;;;38.40;18.52;;;11.10;97.50;;;;;;5032135;28;20124;-70
2022/04/14 05:53:16;;;;;;;36.05;19.83;;;11.10;97.40;;;;;;5023592;28;20028;-70
2022/04/14 05:55:42;;;;;;;37.80;18.92;;;11.10;97.40;;;;;;5024125;28;20035;-72
2022/04/14 05:58:08;;;;;;;29.88;17.95;;;11.10;97.40;;;;;;5033684;28;20105;-70
2022/04/14 06:00:35;;;;;;;29.40;17.33;;;11.20;97.50;;;;;;5032267;28;20032;-70
2022/04/14 06:03:01;;;;;;;29.88;16.65;;;11.20;97.40;;;;;;5032999;28;20389;-70
2022/04/14 06:05:28;;;;;;;33.13;16.90;;;11.20;97.30;;;;;;5032990;28;20037;-70
2022/04/14 06:07:54;;;;;;;31.52;18.20;;;11.20;97.30;;;;;;5032769;28;20436;-70
2022/04/14 06:10:21;;;;;;;29.58;16.33;;;11.30;97.40;;;;;;5029835;28;20033;-70
2022/04/14 06:12:47;;;;;;;28.48;16.52;;;11.20;97.20;;;;;;5033092;28;20373;-70
2022/04/14 06:15:13;;;;;;;26.70;16.42;;;11.30;97.20;;;;;;5033032;28;20048;-70
2022/04/14 06:17:39;;;;;;;27.38;16.65;;;11.30;97.20;;;;;;5031606;28;20127;-70
2022/04/14 06:20:05;;;;;;;27.25;15.48;;;11.30;97.20;;;;;;5031135;28;20030;-70
2022/04/14 06:22:30;;;;;;;24.38;15.55;;;11.30;97.10;;;;;;5033200;28;20033;-72
2022/04/14 06:24:59;;;;;;;22.13;15.23;;;11.30;97.10;;;;;;5031054;28;20394;-69
2022/04/14 06:27:24;;;;;;;25.50;14.85;;;11.40;97.10;;;;;;5031348;28;20077;-69
2022/04/14 06:29:50;;;;;;;23.90;15.23;;;11.50;97.10;;;;;;5032569;28;20085;-69
2022/04/14 06:32:16;;;;;;;21.50;15.15;;;11.40;97.00;;;;;;5032599;28;20025;-69
2022/04/14 06:34:41;;;;;;;21.35;15.07;;;11.40;96.90;;;;;;5029696;28;20030;-70
2022/04/14 06:37:07;;;;;;;27.10;15.02;;;11.50;96.90;;;;;;5028336;28;20476;-72
2022/04/14 06:39:32;;;;;;;20.45;15.43;;;11.50;96.90;;;;;;5024300;28;20052;-73
2022/04/14 06:41:58;;;;;;;25.05;14.77;;;11.40;96.80;;;;;;5032903;28;20083;-69
2022/04/14 06:44:23;;;;;;;20.52;14.45;;;11.50;96.90;;;;;;5027431;28;20092;-69
2022/04/14 06:46:49;;;;;;;24.63;14.98;;;11.50;96.70;;;;;;5024684;28;20040;-69
2022/04/14 06:49:15;;;;;;;23.17;14.65;;;11.60;96.70;;;;;;5030843;28;20222;-69
2022/04/14 06:51:41;;;;;;;26.08;15.85;;;11.60;96.60;;;;;;5025138;28;20025;-70
2022/04/14 06:54:06;;;;;;;22.00;15.38;;;11.60;96.70;;;;;;5022550;28;21127;-69
2022/04/14 06:56:32;;;;;;;22.30;14.32;;;11.60;96.60;;;;;;5032454;28;20037;-70
2022/04/14 06:58:57;;;;;;;21.85;14.55;;;11.70;96.60;;;;;;5032579;28;20029;-70
2022/04/14 07:01:23;;;;;;;23.65;15.27;;;11.70;96.50;;;;;;5027547;28;20113;-70
2022/04/14 07:03:49;;;;;;;19.15;14.68;;;11.70;96.40;;;;;;5032146;28;20033;-70
2022/04/14 07:06:14;;;;;;;26.40;17.15;;;11.80;96.40;;;;;;5031402;28;20362;-70
2022/04/14 07:08:40;;;;;;;22.52;16.92;;;11.80;96.30;;;;;;5027737;28;20034;-70
2022/04/14 07:11:06;;;;;;;22.88;16.40;;;11.80;96.20;;;;;;5025850;28;20028;-70
2022/04/14 07:13:31;;;;;;;24.00;18.40;;;11.90;96.20;;;;;;5030410;28;20428;-70
2022/04/14 07:15:59;;;;;;;28.77;19.15;;;11.80;95.90;;;;;;5032989;28;20121;-70
2022/04/14 07:18:28;;;;;;;24.90;18.25;;;11.80;95.80;;;;;;5028144;28;20048;-71
2022/04/14 07:20:54;;;;;;;25.02;17.98;;;11.90;95.60;;;;;;5029239;28;20041;-71
2022/04/14 07:23:19;;;;;;;25.98;17.90;;;12.00;95.40;;;;;;5031447;28;20091;-70
2022/04/14 07:25:46;;;;;;;26.17;18.88;;;11.90;95.10;;;;;;5028438;28;20425;-72
2022/04/14 07:28:12;;;;;;;26.50;18.00;;;12.00;95.10;;;;;;5031572;28;20522;-73
2022/04/14 07:30:39;;;;;;;21.63;17.48;;;12.10;94.80;;;;;;5031416;28;20109;-70
2022/04/14 07:33:05;;;;;;;23.52;17.23;;;12.00;94.70;;;;;;5031525;28;20534;-70
2022/04/14 07:35:32;;;;;;;22.98;16.17;;;12.10;94.30;;;;;;5025434;28;20038;-70
2022/04/14 07:37:58;;;;;;;21.45;16.52;;;12.10;94.20;;;;;;5030588;28;20149;-70
2022/04/14 07:40:24;;;;;;;22.48;15.95;;;12.10;94.00;;;;;;5031412;28;20457;-70
2022/04/14 07:42:50;;;;;;;25.30;16.10;;;12.10;93.80;;;;;;5029912;28;20076;-70
2022/04/14 07:45:17;;;;;;;24.83;16.48;;;12.10;93.60;;;;;;5031707;28;20372;-70
2022/04/14 07:47:44;;;;;;;20.50;15.50;;;12.10;93.60;;;;;;5023347;28;20036;-70
2022/04/14 07:50:12;;;;;;;24.58;17.38;;;12.20;93.50;;;;;;5030755;28;20021;-70
2022/04/14 07:52:48;;;;;;;26.50;17.02;;;12.30;93.50;;;;;;5026918;28;20025;-70
2022/04/14 07:55:40;;;;;;;29.20;17.83;;;12.20;92.90;;;;;;5025160;28;20484;-70
2022/04/14 07:58:09;;;;;;;23.52;16.50;;;12.30;93.00;;;;;;5016542;28;20094;-70
2022/04/14 08:00:39;;;;;;;23.00;17.70;;;12.40;92.90;;;;;;5019778;28;20025;-71
2022/04/14 08:03:06;;;;;;;24.92;17.35;;;12.60;93.10;;;;;;5031201;28;20025;-70
2022/04/14 08:05:37;;;;;;;25.40;17.35;;;12.60;92.90;;;;;;5030868;28;20132;-71
2022/04/14 08:08:08;;;;;;;24.52;17.33;;;12.50;92.10;;;;;;5031301;28;20116;-70
2022/04/14 08:10:34;;;;;;;24.80;15.90;;;12.70;92.30;;;;;;5018947;28;20353;-70
2022/04/14 08:12:59;;;;;;;24.63;16.95;;;12.70;91.80;;;;;;5031026;28;20488;-70
2022/04/14 08:15:25;;;;;;;21.60;16.30;;;12.80;91.70;;;;;;5030528;28;20073;-70
2022/04/14 08:17:51;;;;;;;27.20;17.25;;;12.80;90.60;;;;;;5025928;28;20038;-71
2022/04/14 08:20:17;;;;;;;25.45;16.98;;;12.80;90.60;;;;;;5030203;28;20183;-69
2022/04/14 08:22:51;;;;;;;22.70;15.48;;;13.00;90.30;;;;;;5031370;28;20021;-69
2022/04/14 08:25:20;;;;;;;24.42;15.77;;;13.00;90.10;;;;;;5031171;28;20025;-69
2022/04/14 08:27:47;;;;;;;23.48;15.65;;;13.00;90.20;;;;;;5026868;28;20048;-69
2022/04/14 08:30:14;;;;;;;22.38;15.90;;;13.10;89.90;;;;;;5031214;28;20087;-69
2022/04/14 08:32:40;;;;;;;26.35;15.98;;;13.10;89.60;;;;;;5030381;28;20440;-71
2022/04/14 08:35:06;;;;;;;23.52;15.82;;;13.00;89.50;;;;;;5024515;28;20396;-69
2022/04/14 08:37:32;;;;;;;22.33;15.90;;;13.00;89.70;;;;;;5031099;28;20044;-72
2022/04/14 08:39:58;;;;;;;24.08;16.27;;;13.20;89.80;;;;;;5030084;28;20029;-70
2022/04/14 08:42:34;;;;;;;22.83;15.20;;;13.40;90.20;;;;;;5031878;28;20029;-70
2022/04/14 08:45:05;;;;;;;24.17;15.35;;;13.20;89.00;;;;;;5029573;28;20084;-70
2022/04/14 08:47:31;;;;;;;;;;;13.30;88.40;;;;;;5028964;28;20446;-71
2022/04/14 08:49:58;;;;;;;25.25;15.27;;;13.50;88.50;;;;;;5031661;28;19909;-70
2022/04/14 08:52:26;;;;;;;25.02;14.85;;;13.70;89.00;;;;;;5020188;28;20120;-70
2022/04/14 08:54:54;;;;;;;23.50;15.73;;;13.70;88.20;;;;;;5030347;28;20479;-72
2022/04/14 08:57:22;;;;;;;23.92;15.32;;;14.00;88.80;;;;;;5030723;28;20022;-70
2022/04/14 08:59:49;;;;;;;23.60;14.52;;;13.80;87.70;;;;;;5029934;28;20030;-70
2022/04/14 09:02:18;;;;;;;24.02;15.52;;;13.70;87.80;;;;;;5029895;28;20159;-71
2022/04/14 09:04:44;;;;;;;23.92;15.43;;;13.70;88.00;;;;;;5028688;28;20030;-71
2022/04/14 09:07:11;;;;;;;22.77;14.77;;;13.80;88.30;;;;;;5029898;28;20038;-70
2022/04/14 09:09:37;;;;;;;21.58;13.75;;;13.70;87.20;;;;;;5024065;28;20136;-70
2022/04/14 09:12:04;;;;;;;24.33;14.90;;;14.00;87.00;;;;;;5031715;28;20385;-70
2022/04/14 09:14:34;;;;;;;21.42;13.32;;;14.00;87.10;;;;;;5034110;28;20447;-70
2022/04/14 09:17:03;;;;;;;22.10;13.38;;;14.00;86.50;;;;;;5032255;28;20026;-70
2022/04/14 09:19:30;;;;;;;20.15;13.80;;;14.00;86.00;;;;;;5025431;28;20188;-71
2022/04/14 09:21:58;;;;;;;19.15;13.13;;;14.20;86.30;;;;;;5033265;28;20067;-70
2022/04/14 09:24:47;;;;;;;20.45;13.32;;;14.10;85.70;;;;;;5033571;28;20033;-72
2022/04/14 09:27:25;;;;;;;24.02;13.60;;;14.10;85.20;;;;;;5033256;28;20084;-70
2022/04/14 09:29:51;;;;;;;21.30;12.45;;;14.30;85.50;;;;;;5033584;28;20038;-70
2022/04/14 09:32:46;;;;;;;18.05;11.93;;;14.40;84.40;;;;;;5032843;28;20045;-74
2022/04/14 09:35:19;;;;;;;18.77;12.13;;;14.60;85.20;;;;;;5008381;28;20133;-72
2022/04/14 09:37:45;;;;;;;29.73;12.50;;;14.40;84.30;;;;;;5033671;28;20025;-70
2022/04/14 09:40:11;;;;;;;20.75;12.68;;;14.30;84.00;;;;;;5033576;28;20101;-70
2022/04/14 09:42:50;;;;;;;19.73;11.85;;;14.40;83.80;;;;;;5027920;28;20029;-70
2022/04/14 09:45:23;;;;;;;16.85;10.98;;;14.60;84.10;;;;;;5032038;28;20116;-70
2022/04/14 09:47:49;;;;;;;19.90;10.98;;;14.50;83.00;;;;;;5024934;28;20038;-70
2022/04/14 09:50:29;;;;;;;15.13;10.27;;;14.50;83.00;;;;;;5034771;28;20030;-70
2022/04/14 09:53:11;;;;;;;16.15;9.85;;;14.70;81.90;;;;;;5031049;28;20056;-70
2022/04/14 09:55:50;;;;;;;15.90;10.15;;;14.60;81.50;;;;;;5033050;28;20029;-70
2022/04/14 09:58:21;;;;;;;17.73;10.63;;;14.40;82.00;;;;;;5033569;28;20036;-70
2022/04/14 10:00:49;;;;;;;18.25;11.07;;;14.60;82.90;;;;;;5032898;28;20034;-70
2022/04/14 10:03:17;;;;;;;16.70;10.10;;;14.70;83.30;;;;;;5032887;28;20037;-70
2022/04/14 10:05:48;;;;;;;16.73;9.80;;;14.70;82.00;;;;;;5032286;28;20431;-70
2022/04/14 10:08:14;;;;;;;16.45;9.88;;;14.70;81.90;;;;;;5029640;28;20030;-70
2022/04/14 10:10:45;;;;;;;14.65;9.25;;;14.60;81.80;;;;;;5024899;28;20029;-70
2022/04/14 10:13:16;;;;;;;13.18;9.05;;;14.60;81.90;;;;;;5033170;28;20038;-70
2022/04/14 10:15:47;;;;;;;16.65;9.00;;;14.70;80.80;;;;;;5030124;28;20463;-70
2022/04/14 10:18:15;;;;;;;14.82;8.25;;;15.20;80.20;;;;;;5030393;28;20038;-70
2022/04/14 10:20:43;;;;;;;14.43;7.93;;;15.80;79.30;;;;;;5032558;28;20492;-70
2022/04/14 10:23:10;;;;;;;18.75;10.02;;;16.00;75.20;;;;;;5032209;28;20547;-70
2022/04/14 10:25:37;;;;;;;11.80;7.72;;;16.30;75.20;;;;;;5028454;28;20025;-70
2022/04/14 10:28:05;;;;;;;13.93;8.20;;;16.60;75.30;;;;;;5033233;28;20050;-70
2022/04/14 10:30:31;;;;;;;10.20;6.43;;;16.10;73.00;;;;;;5032359;28;20116;-72
2022/04/14 10:32:57;;;;;;;15.27;7.38;;;15.80;71.60;;;;;;5027994;28;20113;-70
2022/04/14 10:35:25;;;;;;;10.95;7.00;;;16.50;73.70;;;;;;5028514;28;20037;-70
2022/04/14 10:38:00;;;;;;;10.18;7.57;;;16.30;72.20;;;;;;5030527;28;20064;-70
2022/04/14 10:40:25;;;;;;;13.00;7.07;;;16.00;72.60;;;;;;5028981;28;20029;-68
2022/04/14 10:42:55;;;;;;;11.95;8.05;;;16.30;72.80;;;;;;5028038;28;20179;-68
2022/04/14 10:45:25;;;;;;;16.45;8.38;;;16.60;71.40;;;;;;5027602;28;20037;-71
2022/04/14 10:47:50;;;;;;;11.13;7.53;;;17.00;72.50;;;;;;5030210;28;20139;-69
2022/04/14 10:50:21;;;;;;;10.75;7.07;;;17.00;69.20;;;;;;5029136;28;20052;-69
2022/04/14 10:53:12;;;;;;;10.40;7.40;;;17.30;70.60;;;;;;5032248;28;20098;-70
2022/04/14 10:55:37;;;;;;;12.25;7.15;;;17.50;68.50;;;;;;5031874;28;20025;-69
2022/04/14 10:58:03;;;;;;;13.07;7.63;;;17.00;70.70;;;;;;5032334;28;20389;-69
2022/04/14 11:00:38;;;;;;;11.80;7.30;;;17.00;69.20;;;;;;5027177;28;20036;-70
2022/04/14 11:03:11;;;;;;;10.40;7.28;;;17.50;68.70;;;;;;5034467;28;20029;-69
2022/04/14 11:05:47;;;;;;;10.48;6.78;;;17.60;66.90;;;;;;5031733;28;20030;-69
2022/04/14 11:08:24;;;;;;;10.30;7.25;;;17.50;67.40;;;;;;5020188;28;20098;-70
2022/04/14 11:11:05;;;;;;;10.38;7.47;;;17.00;67.70;;;;;;5031978;28;20362;-70
2022/04/14 11:13:55;;;;;;;13.10;8.05;;;16.50;69.30;;;;;;5032119;28;20472;-69
2022/04/14 11:16:47;;;;;;;12.07;7.85;;;16.30;69.80;;;;;;5029738;28;20124;-69
2022/04/14 11:19:21;;;;;;;13.10;8.20;;;16.10;70.30;;;;;;5031963;28;20044;-72
2022/04/14 11:21:59;;;;;;;11.02;7.72;;;16.00;71.10;;;;;;5031759;28;20040;-69
2022/04/14 11:24:36;;;;;;;12.50;8.10;;;16.00;70.90;;;;;;5027326;28;20032;-69
2022/04/14 11:27:17;;;;;;;12.50;8.70;;;16.10;71.10;;;;;;5031531;28;20041;-69
2022/04/14 11:29:47;;;;;;;12.65;8.63;;;16.10;71.80;;;;;;5031602;28;20026;-69
2022/04/14 11:32:14;;;;;;;13.48;8.55;;;16.50;71.60;;;;;;5031479;28;20041;-69
2022/04/14 11:34:41;;;;;;;10.70;8.73;;;16.40;70.30;;;;;;5024091;28;20469;-69
2022/04/14 11:37:41;;;;;;;13.02;8.73;;;16.10;70.80;;;;;;5031136;28;20033;-69
2022/04/14 11:40:15;;;;;;;11.13;8.32;;;16.10;71.00;;;;;;5031560;28;20036;-69
2022/04/14 11:42:41;;;;;;;13.15;8.30;;;16.40;71.50;;;;;;5028766;28;20057;-71
2022/04/14 11:45:07;;;;;;;11.95;8.02;;;16.50;70.90;;;;;;5031243;28;20384;-69
2022/04/14 11:47:33;;;;;;;14.48;8.25;;;16.40;70.60;;;;;;5030003;28;20041;-69
2022/04/14 11:49:59;;;;;;;10.75;8.77;;;16.40;71.50;;;;;;5029392;28;20041;-69
2022/04/14 11:52:26;;;;;;;11.77;8.95;;;16.40;71.10;;;;;;5026686;28;20033;-69
2022/04/14 11:54:53;;;;;;;14.32;8.88;;;16.10;71.00;;;;;;5032555;28;20479;-70
2022/04/14 11:57:22;;;;;;;15.82;8.40;;;16.20;71.30;;;;;;5030293;28;20025;-69
2022/04/14 11:59:50;;;;;;;13.18;8.48;;;16.10;71.40;;;;;;5031219;28;20441;-69
2022/04/14 12:02:26;;;;;;;11.13;8.27;;;16.20;71.70;;;;;;5030455;28;20113;-69
2022/04/14 12:04:54;;;;;;;15.77;8.48;;;16.20;71.40;;;;;;5030968;28;20503;-69
2022/04/14 12:07:21;;;;;;;11.93;8.25;;;16.20;72.10;;;;;;5026568;28;20465;-69
2022/04/14 12:09:57;;;;;;;15.57;8.35;;;16.20;72.20;;;;;;5030637;28;20029;-69
2022/04/14 12:12:23;;;;;;;12.68;8.18;;;16.40;71.80;;;;;;5030990;28;20403;-69
2022/04/14 12:14:52;;;;;;;12.80;8.77;;;16.10;70.70;;;;;;5026403;28;20084;-69
2022/04/14 12:17:22;;;;;;;13.88;8.57;;;16.10;70.80;;;;;;5025049;28;20500;-69
2022/04/14 12:20:00;;;;;;;10.95;7.28;;;16.10;71.30;;;;;;5030702;28;20148;-69
2022/04/14 12:22:29;;;;;;;12.15;7.70;;;16.10;70.10;;;;;;5010974;28;20040;-70
2022/04/14 12:24:59;;;;;;;15.35;8.35;;;16.00;70.40;;;;;;5026619;28;20060;-70
2022/04/14 12:27:34;;;;;;;10.80;7.03;;;16.00;71.00;;;;;;5030505;28;20392;-69
2022/04/14 12:30:07;;;;;;;13.48;8.50;;;16.00;71.30;;;;;;5030921;28;20026;-69